Time;durP1;ratioP1;P1;durP2;ratioP2;P2;SDS_P1;SDS_P2;PMS_P1;PMS_P2;Temp;Humidity;BMP_temperature;BMP_pressure;BME280_temperature;BME280_humidity;BME280_pressure;Samples;Min_cycle;Max_cycle;Signal;HPM_P1;HPM_P2
2021/03/04 00:00:47;;;;;;;42.53;25.10;;;;;;;7.74;57.35;99324.17;124181;1105;104153;-68
2021/03/04 00:03:18;;;;;;;44.40;25.03;;;;;;;7.71;56.82;99326.98;124017;1106;104354;-67
2021/03/04 00:05:46;;;;;;;47.30;24.57;;;;;;;7.72;56.93;99326.05;124196;1105;104262;-67
2021/03/04 00:08:16;;;;;;;44.70;24.60;;;;;;;7.72;56.95;99323.41;124229;1105;104697;-68
2021/03/04 00:10:43;;;;;;;48.87;24.70;;;;;;;7.70;57.55;99325.28;124193;1105;104270;-66
2021/03/04 00:13:12;;;;;;;45.33;24.83;;;;;;;7.68;57.33;99317.41;124938;1104;104187;-67
2021/03/04 00:15:41;;;;;;;45.63;23.73;;;;;;;7.67;57.35;99318.34;124243;1106;104191;-67
2021/03/04 00:18:09;;;;;;;44.33;24.17;;;;;;;7.65;56.97;99309.64;123803;1106;104323;-67
2021/03/04 00:20:37;;;;;;;48.20;26.03;;;;;;;7.65;57.36;99308.80;124177;1105;104251;-67
2021/03/04 00:23:04;;;;;;;48.37;24.97;;;;;;;7.66;57.16;99307.86;124151;1105;104287;-67
2021/03/04 00:25:35;;;;;;;43.48;24.00;;;;;;;7.65;57.45;99298.20;124132;1105;104227;-68
2021/03/04 00:28:04;;;;;;;45.80;23.33;;;;;;;7.63;57.42;99300.09;123895;1105;104191;-67
2021/03/04 00:30:33;;;;;;;43.47;23.73;;;;;;;7.60;57.66;99296.67;124239;1105;104201;-67
2021/03/04 00:33:00;;;;;;;45.37;24.83;;;;;;;7.59;57.85;99294.09;124209;1105;104246;-68
2021/03/04 00:35:29;;;;;;;44.70;23.47;;;;;;;7.58;57.10;99297.69;124282;1105;104506;-68
2021/03/04 00:37:57;;;;;;;42.73;23.53;;;;;;;7.55;57.19;99290.78;124154;1105;104259;-67
2021/03/04 00:40:25;;;;;;;40.40;22.33;;;;;;;7.55;57.82;99284.62;124250;1105;104165;-69
2021/03/04 00:42:53;;;;;;;47.57;24.37;;;;;;;7.54;57.63;99286.43;124284;1105;104320;-67
2021/03/04 00:45:24;;;;;;;41.85;22.82;;;;;;;7.52;57.75;99280.36;124032;1105;104438;-67
2021/03/04 00:48:09;;;;;;;45.73;24.97;;;;;;;7.51;57.34;99276.02;124318;1105;104402;-68
2021/03/04 00:50:39;;;;;;;44.75;24.25;;;;;;;7.50;57.95;99274.30;123960;1105;104223;-66
2021/03/04 00:53:06;;;;;;;43.57;22.60;;;;;;;7.50;57.40;99270.82;124195;1105;104267;-67
2021/03/04 00:55:33;;;;;;;47.60;25.50;;;;;;;7.49;57.48;99269.11;124107;1105;104214;-67
2021/03/04 00:58:02;;;;;;;47.67;24.97;;;;;;;7.47;57.52;99265.70;125224;1105;104157;-70
2021/03/04 01:00:31;;;;;;;44.03;26.00;;;;;;;7.44;57.94;99259.64;124237;1105;104322;-68
2021/03/04 01:02:58;;;;;;;47.00;24.15;;;;;;;7.43;57.85;99249.13;125455;1105;103009;-68
2021/03/04 01:05:28;;;;;;;45.07;25.77;;;;;;;7.41;58.12;99249.22;124254;1105;104194;-68
2021/03/04 01:07:55;;;;;;;45.33;23.67;;;;;;;7.40;57.82;99247.52;123975;1105;104271;-67
2021/03/04 01:10:38;;;;;;;45.67;26.57;;;;;;;7.41;57.56;99238.64;124233;1105;104185;-68
2021/03/04 01:13:07;;;;;;;47.83;23.70;;;;;;;7.41;58.26;99232.47;124149;1106;104281;-69
2021/03/04 01:15:36;;;;;;;50.03;24.23;;;;;;;7.39;57.55;99232.58;124142;1106;104248;-68
2021/03/04 01:18:13;;;;;;;45.43;25.20;;;;;;;7.38;58.22;99222.93;124240;1105;104220;-67
2021/03/04 01:20:42;;;;;;;45.97;24.77;;;;;;;7.38;58.20;99220.28;125321;1105;104223;-67
2021/03/04 01:23:10;;;;;;;43.77;23.30;;;;;;;7.37;57.89;99218.58;124204;1105;104191;-67
2021/03/04 01:25:37;;;;;;;44.27;24.97;;;;;;;7.37;58.09;99221.22;124273;1105;104400;-68
2021/03/04 01:28:05;;;;;;;48.27;25.70;;;;;;;7.35;57.69;99219.59;125370;1105;104216;-68
2021/03/04 01:30:34;;;;;;;44.30;23.53;;;;;;;7.34;57.71;99205.52;124179;1105;104251;-68
2021/03/04 01:33:14;;;;;;;42.43;22.13;;;;;;;7.33;58.27;99210.91;124378;1105;104226;-68
2021/03/04 01:35:42;;;;;;;43.10;23.57;;;;;;;7.30;58.32;99199.56;124194;1105;104188;-68
2021/03/04 01:38:11;;;;;;;42.63;22.83;;;;;;;7.28;57.83;99203.22;124451;1105;104213;-68
2021/03/04 01:40:39;;;;;;;46.97;24.27;;;;;;;7.28;57.84;99198.80;124116;1105;104169;-68
2021/03/04 01:43:08;;;;;;;43.67;22.70;;;;;;;7.28;57.92;99198.80;124741;1105;104181;-69
2021/03/04 01:45:36;;;;;;;45.83;23.80;;;;;;;7.28;58.44;99200.57;124142;1105;104290;-68
2021/03/04 01:48:06;;;;;;;44.33;24.43;;;;;;;7.25;57.96;99198.10;124476;1105;104287;-68
2021/03/04 01:50:34;;;;;;;43.10;23.80;;;;;;;7.22;57.83;99200.92;124617;1105;104383;-68
2021/03/04 01:53:03;;;;;;;46.43;24.87;;;;;;;7.19;57.89;99196.66;124122;1106;104169;-67
2021/03/04 01:55:31;;;;;;;45.03;24.40;;;;;;;7.16;57.76;99196.84;124173;1105;104156;-67
2021/03/04 01:57:58;;;;;;;49.60;24.80;;;;;;;7.10;58.25;99191.89;126143;1105;101799;-67
2021/03/04 02:00:25;;;;;;;47.17;24.67;;;;;;;7.07;58.12;99186.77;124266;1105;104682;-68
2021/03/04 02:02:52;;;;;;;44.17;24.10;;;;;;;7.02;58.34;99191.46;124524;1105;104363;-68
2021/03/04 02:05:21;;;;;;;44.97;23.47;;;;;;;6.98;57.92;99186.34;124241;1105;104247;-69
2021/03/04 02:08:03;;;;;;;44.30;23.40;;;;;;;6.94;58.03;99178.67;124232;1105;104264;-68
2021/03/04 02:10:36;;;;;;;45.33;24.20;;;;;;;6.89;58.30;99176.30;124143;1105;104181;-68
2021/03/04 02:13:06;;;;;;;40.05;22.40;;;;;;;6.87;58.76;99172.02;124174;1105;104390;-68
2021/03/04 02:15:54;;;;;;;48.47;24.97;;;;;;;6.81;58.85;99163.48;124196;1105;104338;-69
2021/03/04 02:18:26;;;;;;;46.67;23.80;;;;;;;6.80;58.73;99163.59;124174;1105;104255;-67
2021/03/04 02:21:12;;;;;;;48.73;25.87;;;;;;;6.77;58.86;99167.23;124170;1105;104184;-67
2021/03/04 02:24:06;;;;;;;44.20;24.40;;;;;;;6.74;58.81;99163.92;125023;1105;104005;-69
2021/03/04 02:26:44;;;;;;;45.65;25.30;;;;;;;6.69;58.24;99165.03;124199;1105;104224;-68
2021/03/04 02:29:20;;;;;;;44.77;24.03;;;;;;;6.66;58.49;99161.72;124181;1105;104210;-67
2021/03/04 02:31:52;;;;;;;43.93;24.70;;;;;;;6.65;58.62;99162.66;124264;1105;104230;-69
2021/03/04 02:34:24;;;;;;;45.57;25.03;;;;;;;6.64;58.47;99158.30;124407;1106;104256;-68
2021/03/04 02:36:54;;;;;;;46.63;24.93;;;;;;;6.62;58.99;99160.17;124280;1105;104227;-68
2021/03/04 02:39:24;;;;;;;45.43;24.40;;;;;;;6.59;58.78;99155.89;124110;1105;104204;-68
2021/03/04 02:41:53;;;;;;;45.13;24.40;;;;;;;6.58;58.64;99161.28;124187;1105;104259;-67
2021/03/04 02:44:23;;;;;;;45.53;24.73;;;;;;;6.56;58.80;99148.13;124118;1105;104175;-67
2021/03/04 02:46:53;;;;;;;42.17;22.90;;;;;;;6.56;58.71;99145.48;124254;1105;104235;-67
2021/03/04 02:49:37;;;;;;;47.95;26.75;;;;;;;6.51;58.47;99148.39;124141;1105;104287;-68
2021/03/04 02:52:07;;;;;;;47.23;24.20;;;;;;;6.48;58.48;99137.98;124192;1105;104259;-67
2021/03/04 02:54:36;;;;;;;50.47;25.80;;;;;;;6.45;59.01;99135.52;124171;1106;104278;-67
2021/03/04 02:57:04;;;;;;;45.13;22.73;;;;;;;6.43;58.74;99141.83;124117;1105;104284;-67
2021/03/04 02:59:32;;;;;;;48.07;26.03;;;;;;;6.37;58.90;99130.66;124171;1105;104175;-66
2021/03/04 03:02:01;;;;;;;45.87;25.17;;;;;;;6.36;59.12;99136.00;124111;1105;104277;-69
2021/03/04 03:04:34;;;;;;;41.17;23.27;;;;;;;6.34;59.06;99129.95;124384;1105;104160;-68
2021/03/04 03:07:04;;;;;;;48.70;26.33;;;;;;;6.31;58.84;99127.50;124209;1105;104286;-67
2021/03/04 03:09:33;;;;;;;46.50;25.03;;;;;;;6.29;59.27;99126.73;124188;1105;104262;-68
2021/03/04 03:12:02;;;;;;;48.50;24.53;;;;;;;6.28;58.97;99132.95;124254;1105;104172;-68
2021/03/04 03:14:31;;;;;;;47.47;25.90;;;;;;;6.26;59.15;99122.45;124204;1105;104182;-66
2021/03/04 03:17:00;;;;;;;46.47;23.97;;;;;;;6.26;59.24;99119.81;124272;1105;104187;-67
2021/03/04 03:19:28;;;;;;;44.97;24.13;;;;;;;6.24;58.95;99125.19;124192;1105;104648;-68
2021/03/04 03:21:56;;;;;;;48.70;26.17;;;;;;;6.24;58.84;99119.04;125225;1105;104185;-66
2021/03/04 03:24:26;;;;;;;45.53;24.83;;;;;;;6.24;59.03;99111.98;124311;1105;104153;-65
2021/03/04 03:26:54;;;;;;;46.97;26.20;;;;;;;6.27;59.10;99118.03;124080;1106;104252;-67
2021/03/04 03:29:22;;;;;;;48.27;25.90;;;;;;;6.25;58.85;99116.33;124157;1105;104264;-67
2021/03/04 03:31:53;;;;;;;47.13;24.43;;;;;;;6.23;59.08;99114.69;124158;1105;104386;-67
2021/03/04 03:34:23;;;;;;;46.65;24.70;;;;;;;6.20;58.91;99109.57;124183;1105;104252;-67
2021/03/04 03:36:53;;;;;;;46.80;25.37;;;;;;;6.14;59.28;99105.48;124422;1104;104280;-68
2021/03/04 03:39:23;;;;;;;49.37;25.77;;;;;;;6.12;59.29;99099.42;124183;1105;104273;-68
2021/03/04 03:41:51;;;;;;;50.23;27.37;;;;;;;6.11;59.41;99095.92;124196;1105;104213;-68
2021/03/04 03:44:19;;;;;;;49.10;26.90;;;;;;;6.09;59.06;99087.26;124183;1105;104351;-68
2021/03/04 03:46:49;;;;;;;48.17;26.57;;;;;;;6.09;59.39;99081.11;124110;1106;104351;-68
2021/03/04 03:49:18;;;;;;;48.17;26.80;;;;;;;6.08;59.34;99084.68;124195;1105;104255;-68
2021/03/04 03:51:45;;;;;;;47.83;27.43;;;;;;;6.06;59.36;99071.58;124777;1105;104213;-68
2021/03/04 03:54:15;;;;;;;49.70;27.27;;;;;;;6.05;59.48;99077.79;124260;1105;104220;-68
2021/03/04 03:56:43;;;;;;;49.13;25.93;;;;;;;6.03;59.71;99076.15;124222;1105;104190;-67
2021/03/04 03:59:13;;;;;;;47.50;26.35;;;;;;;6.01;59.31;99070.09;124206;1105;104187;-67
2021/03/04 04:01:41;;;;;;;43.40;24.17;;;;;;;5.97;59.78;99058.83;124986;1105;104133;-66
2021/03/04 04:04:08;;;;;;;48.07;25.93;;;;;;;5.95;59.55;99056.25;124152;1105;104203;-67
2021/03/04 04:06:37;;;;;;;49.50;26.27;;;;;;;5.92;59.65;99064.34;123976;1105;104246;-67
2021/03/04 04:09:08;;;;;;;44.60;24.17;;;;;;;5.91;59.58;99059.99;125298;1104;104335;-67
2021/03/04 04:11:38;;;;;;;50.90;26.57;;;;;;;5.92;59.58;99052.94;124203;1106;104313;-66
2021/03/04 04:14:06;;;;;;;49.60;26.60;;;;;;;5.92;59.87;99058.22;124203;1105;104200;-67
2021/03/04 04:16:35;;;;;;;49.05;26.75;;;;;;;5.91;60.10;99052.08;124336;1105;104184;-67
2021/03/04 04:19:02;;;;;;;49.63;26.13;;;;;;;5.90;59.68;99049.53;124361;1105;104188;-67
2021/03/04 04:21:31;;;;;;;48.43;26.40;;;;;;;5.89;59.81;99059.25;124195;1105;104249;-67
2021/03/04 04:24:00;;;;;;;52.93;29.97;;;;;;;5.89;59.52;99050.47;124320;1105;104175;-67
2021/03/04 04:26:26;;;;;;;53.50;26.70;;;;;;;5.90;59.91;99038.97;124229;1105;104249;-67
2021/03/04 04:28:53;;;;;;;48.90;27.60;;;;;;;5.90;59.76;99036.33;124244;1105;104182;-67
2021/03/04 04:31:22;;;;;;;44.47;25.67;;;;;;;5.90;60.23;99036.33;125537;1103;104211;-68
2021/03/04 04:33:49;;;;;;;52.30;27.50;;;;;;;5.89;59.77;99035.49;124293;1105;104189;-68
2021/03/04 04:36:18;;;;;;;48.43;26.30;;;;;;;5.91;60.23;99033.59;124179;1105;104188;-68
2021/03/04 04:38:45;;;;;;;51.13;28.10;;;;;;;5.89;59.86;99035.49;124298;1105;104184;-68
2021/03/04 04:41:13;;;;;;;47.10;25.45;;;;;;;5.89;59.99;99027.58;124163;1105;104283;-68
2021/03/04 04:43:40;;;;;;;49.93;26.63;;;;;;;5.89;59.73;99029.34;124166;1105;104310;-68
2021/03/04 04:46:08;;;;;;;46.10;24.63;;;;;;;5.88;59.97;99023.23;124133;1105;104210;-66
2021/03/04 04:48:35;;;;;;;47.50;24.90;;;;;;;5.89;59.92;99018.78;124175;1105;104181;-68
2021/03/04 04:51:12;;;;;;;49.47;27.10;;;;;;;5.89;59.92;99019.66;125041;1105;101799;-69
2021/03/04 04:53:41;;;;;;;43.53;24.20;;;;;;;5.87;60.41;99020.66;124138;1105;104221;-67
2021/03/04 04:56:08;;;;;;;52.00;27.67;;;;;;;5.89;60.24;99013.50;124183;1105;104156;-68
2021/03/04 04:58:40;;;;;;;46.57;24.67;;;;;;;5.87;59.95;99002.17;125014;1105;104181;-68
2021/03/04 05:01:07;;;;;;;47.40;25.03;;;;;;;5.85;60.06;98999.63;124543;1105;104198;-70
2021/03/04 05:03:36;;;;;;;42.93;21.93;;;;;;;5.85;60.06;98996.13;124214;1105;104583;-68
2021/03/04 05:06:05;;;;;;;46.97;24.83;;;;;;;5.80;60.14;98997.22;124593;1105;104272;-67
2021/03/04 05:08:31;;;;;;;49.50;26.47;;;;;;;5.77;60.02;98994.75;125783;1105;104691;-67
2021/03/04 05:10:58;;;;;;;43.90;24.98;;;;;;;5.75;59.95;98996.61;124182;1106;104245;-67
2021/03/04 05:13:27;;;;;;;47.27;24.60;;;;;;;5.74;60.31;98992.27;124113;1105;104213;-68
2021/03/04 05:15:54;;;;;;;46.43;24.77;;;;;;;5.71;60.12;98989.80;124137;1105;104214;-67
2021/03/04 05:18:21;;;;;;;48.57;25.63;;;;;;;5.70;60.53;98988.13;124890;1105;104271;-67
2021/03/04 05:20:50;;;;;;;46.73;27.07;;;;;;;5.68;60.40;98979.44;124253;1106;104248;-67
2021/03/04 05:23:17;;;;;;;49.53;26.47;;;;;;;5.66;60.33;98981.30;124171;1105;104258;-68
2021/03/04 05:25:46;;;;;;;47.60;25.73;;;;;;;5.67;60.19;98988.28;124126;1105;104258;-67
2021/03/04 05:28:13;;;;;;;50.70;26.07;;;;;;;5.66;60.41;98979.50;124173;1105;104217;-67
2021/03/04 05:30:43;;;;;;;47.90;26.80;;;;;;;5.64;60.34;98983.17;124299;1104;104641;-66
2021/03/04 05:33:10;;;;;;;52.27;27.27;;;;;;;5.63;60.61;98990.22;124215;1105;104230;-67
2021/03/04 05:35:38;;;;;;;51.87;27.60;;;;;;;5.63;60.68;98974.38;124210;1105;104246;-66
2021/03/04 05:38:05;;;;;;;46.53;24.82;;;;;;;5.65;60.24;98976.95;124175;1106;104223;-66
2021/03/04 05:40:34;;;;;;;60.43;29.60;;;;;;;5.65;60.45;98974.32;124167;1106;104303;-68
2021/03/04 05:43:01;;;;;;;47.67;26.63;;;;;;;5.66;60.66;98966.30;124027;1106;104245;-69
2021/03/04 05:45:31;;;;;;;51.53;27.50;;;;;;;5.66;60.75;98963.66;125019;1105;102550;-69
2021/03/04 05:48:02;;;;;;;52.35;27.50;;;;;;;5.68;60.49;98963.59;124813;1105;104370;-66
2021/03/04 05:50:31;;;;;;;51.50;29.00;;;;;;;5.71;60.47;98967.84;124223;1105;104258;-67
2021/03/04 05:53:05;;;;;;;49.77;27.07;;;;;;;5.73;60.42;98958.89;124199;1106;104328;-69
2021/03/04 05:55:32;;;;;;;52.23;28.10;;;;;;;5.74;60.80;98959.77;124249;1105;104259;-69
2021/03/04 05:58:01;;;;;;;53.93;29.13;;;;;;;5.77;60.93;98963.08;124100;1105;104181;-67
2021/03/04 06:00:30;;;;;;;50.07;27.17;;;;;;;5.79;60.88;98949.81;124127;1105;104309;-68
2021/03/04 06:02:58;;;;;;;51.23;26.83;;;;;;;5.79;60.79;98939.25;124038;1105;104185;-69
2021/03/04 06:05:25;;;;;;;53.50;28.57;;;;;;;5.77;60.81;98947.23;124110;1105;104290;-68
2021/03/04 06:07:53;;;;;;;54.20;27.33;;;;;;;5.79;60.65;98949.81;124095;1105;104219;-70
2021/03/04 06:10:20;;;;;;;49.03;26.55;;;;;;;5.79;60.82;98942.73;124398;1105;104189;-70
2021/03/04 06:12:47;;;;;;;44.33;23.87;;;;;;;5.83;60.94;98939.92;123949;1105;104185;-68
2021/03/04 06:15:15;;;;;;;47.73;26.70;;;;;;;5.81;60.94;98942.66;123936;1109;104274;-70
2021/03/04 06:17:53;;;;;;;51.67;28.23;;;;;;;5.83;60.86;98942.56;124324;1105;104185;-69
2021/03/04 06:20:21;;;;;;;50.70;26.10;;;;;;;5.86;61.02;98929.20;123978;1105;104246;-70
2021/03/04 06:22:51;;;;;;;48.30;25.87;;;;;;;5.90;60.82;98923.68;123996;1105;104306;-68
2021/03/04 06:25:22;;;;;;;48.43;26.83;;;;;;;5.95;61.20;98923.41;124307;1105;104259;-68
2021/03/04 06:27:49;;;;;;;48.30;25.07;;;;;;;6.01;61.06;98919.59;124265;1105;104156;-67
2021/03/04 06:30:17;;;;;;;47.70;27.60;;;;;;;6.05;60.78;98921.13;124233;1105;104265;-69
2021/03/04 06:33:00;;;;;;;53.13;27.33;;;;;;;6.10;60.98;98917.31;124108;1105;104635;-69
2021/03/04 06:35:32;;;;;;;50.10;26.17;;;;;;;6.18;61.04;98913.36;126181;1105;102281;-68
2021/03/04 06:38:11;;;;;;;44.43;24.00;;;;;;;6.27;60.88;98925.20;126293;1105;103212;-68
2021/03/04 06:40:40;;;;;;;48.17;25.33;;;;;;;6.35;60.99;98909.73;125813;1104;104147;-68
2021/03/04 06:43:16;;;;;;;48.80;24.43;;;;;;;6.45;60.63;98908.27;124238;1105;104264;-67
2021/03/04 06:45:44;;;;;;;47.40;23.73;;;;;;;6.56;60.84;98904.99;124262;1106;104258;-68
2021/03/04 06:48:21;;;;;;;50.17;24.30;;;;;;;6.65;61.36;98912.39;124253;1106;104264;-67
2021/03/04 06:50:56;;;;;;;45.43;23.60;;;;;;;6.73;61.03;98905.80;124300;1105;104178;-67
2021/03/04 06:53:27;;;;;;;44.10;24.20;;;;;;;6.76;60.80;98901.17;124220;1105;104206;-68
2021/03/04 06:56:04;;;;;;;46.10;24.63;;;;;;;6.82;61.16;98898.16;124203;1105;104272;-69
2021/03/04 06:58:37;;;;;;;44.10;23.53;;;;;;;6.88;60.85;98902.25;124190;1105;104271;-68
2021/03/04 07:01:11;;;;;;;43.85;23.80;;;;;;;6.90;60.72;98910.08;124390;1105;104184;-68
2021/03/04 07:03:44;;;;;;;45.30;24.30;;;;;;;6.92;61.21;98906.41;124275;1105;104249;-68
2021/03/04 07:06:38;;;;;;;45.90;24.63;;;;;;;6.96;60.70;98905.26;124197;1105;104267;-68
2021/03/04 07:09:07;;;;;;;40.15;23.65;;;;;;;6.99;60.56;98907.72;124229;1106;104672;-67
2021/03/04 07:11:37;;;;;;;42.73;22.23;;;;;;;7.04;61.25;98907.46;124163;1105;104672;-69
2021/03/04 07:14:07;;;;;;;45.43;23.53;;;;;;;7.10;61.15;98908.87;124264;1106;104230;-68
2021/03/04 07:16:44;;;;;;;43.63;23.13;;;;;;;7.16;61.09;98905.85;124208;1105;104396;-67
2021/03/04 07:19:16;;;;;;;42.47;23.47;;;;;;;7.21;60.40;98903.78;124288;1105;104214;-67
2021/03/04 07:21:55;;;;;;;44.40;23.60;;;;;;;7.33;60.72;98896.04;124238;1105;104235;-67
2021/03/04 07:24:24;;;;;;;42.37;22.50;;;;;;;7.38;61.06;98893.92;124205;1105;104206;-68
2021/03/04 07:26:53;;;;;;;39.65;21.25;;;;;;;7.39;61.12;98885.05;124301;1105;104258;-66
2021/03/04 07:29:23;;;;;;;39.93;21.80;;;;;;;7.41;61.13;98893.73;124198;1105;104162;-66
2021/03/04 07:31:52;;;;;;;40.63;22.87;;;;;;;7.44;60.55;98898.84;124229;1105;104242;-66
2021/03/04 07:34:23;;;;;;;39.33;21.07;;;;;;;7.45;60.84;98885.53;124255;1105;104229;-67
2021/03/04 07:36:54;;;;;;;44.45;23.05;;;;;;;7.48;60.98;98889.77;124201;1105;104187;-67
2021/03/04 07:39:34;;;;;;;44.50;23.43;;;;;;;7.55;60.84;98887.57;124254;1105;104268;-69
2021/03/04 07:42:29;;;;;;;41.33;23.43;;;;;;;7.60;61.07;98886.36;124300;1105;104646;-68
2021/03/04 07:44:57;;;;;;;44.30;24.23;;;;;;;7.70;61.20;98888.42;124207;1105;104178;-66
2021/03/04 07:47:31;;;;;;;45.20;22.53;;;;;;;7.78;60.75;98887.92;124227;1105;104261;-67
2021/03/04 07:49:58;;;;;;;43.37;23.13;;;;;;;7.85;61.06;98878.64;124305;1105;104259;-66
2021/03/04 07:52:26;;;;;;;40.60;22.23;;;;;;;7.94;60.88;98877.19;124124;1105;104185;-66
2021/03/04 07:55:10;;;;;;;40.80;22.23;;;;;;;8.00;60.64;98879.44;124248;1105;104411;-67
2021/03/04 07:57:49;;;;;;;42.23;21.80;;;;;;;8.08;60.59;98871.84;124157;1105;104245;-66
2021/03/04 08:00:20;;;;;;;40.17;21.77;;;;;;;8.16;61.11;98872.17;124167;1105;104240;-67
2021/03/04 08:02:50;;;;;;;43.77;22.90;;;;;;;8.27;60.83;98875.92;124178;1105;104300;-67
2021/03/04 08:05:43;;;;;;;44.93;23.70;;;;;;;8.37;60.82;98873.50;124178;1106;104214;-67
2021/03/04 08:08:22;;;;;;;41.07;23.47;;;;;;;8.42;60.91;98876.69;124250;1105;104319;-67
2021/03/04 08:10:54;;;;;;;44.93;23.67;;;;;;;8.49;60.82;98875.36;124174;1105;104223;-66
2021/03/04 08:13:35;;;;;;;40.03;21.67;;;;;;;8.59;61.08;98875.59;124213;1105;104204;-67
2021/03/04 08:16:13;;;;;;;41.00;21.20;;;;;;;8.67;61.01;98883.05;124133;1105;104252;-69
2021/03/04 08:19:01;;;;;;;41.67;22.43;;;;;;;8.74;60.71;98877.20;124191;1105;104187;-66
2021/03/04 08:21:28;;;;;;;38.53;19.80;;;;;;;8.85;61.00;98867.67;124219;1105;104251;-66
2021/03/04 08:23:57;;;;;;;40.37;19.97;;;;;;;8.92;60.55;98867.14;124171;1106;104248;-67
2021/03/04 08:26:29;;;;;;;40.93;21.60;;;;;;;8.97;60.58;98863.31;124196;1105;104210;-67
2021/03/04 08:29:07;;;;;;;35.47;18.77;;;;;;;9.01;60.53;98876.25;123856;1105;104191;-68
2021/03/04 08:31:50;;;;;;;39.20;19.30;;;;;;;9.05;60.28;98872.43;124191;1105;104179;-67
2021/03/04 08:34:21;;;;;;;42.03;20.40;;;;;;;9.07;60.38;98859.91;123984;1105;105786;-68
2021/03/04 08:36:50;;;;;;;41.00;21.00;;;;;;;9.12;60.44;98867.56;124180;1105;104214;-69
2021/03/04 08:39:19;;;;;;;37.23;19.47;;;;;;;9.14;60.10;98865.66;124226;1105;104184;-66
2021/03/04 08:41:47;;;;;;;40.53;20.40;;;;;;;9.19;60.34;98858.19;124202;1105;104293;-67
2021/03/04 08:44:21;;;;;;;41.30;21.23;;;;;;;9.27;60.20;98856.81;124177;1105;104194;-67
2021/03/04 08:46:50;;;;;;;38.70;19.87;;;;;;;9.36;60.42;98854.38;123989;1105;104258;-68
2021/03/04 08:49:23;;;;;;;44.13;22.57;;;;;;;9.41;60.18;98845.20;124000;1105;104181;-67
2021/03/04 08:51:55;;;;;;;36.47;19.97;;;;;;;9.47;60.24;98836.80;123977;1106;104185;-68
2021/03/04 08:54:32;;;;;;;44.00;21.53;;;;;;;9.63;59.92;98836.54;124195;1105;104267;-66
2021/03/04 08:57:07;;;;;;;43.63;23.03;;;;;;;9.71;60.07;98833.34;124267;1105;104188;-67
2021/03/04 08:59:38;;;;;;;35.93;17.93;;;;;;;9.79;59.84;98834.47;124249;1105;104778;-68
2021/03/04 09:02:13;;;;;;;40.73;21.13;;;;;;;9.99;59.65;98832.14;124197;1105;104249;-67
2021/03/04 09:04:46;;;;;;;41.83;22.20;;;;;;;10.10;59.83;98832.20;124257;1105;104246;-67
2021/03/04 09:07:31;;;;;;;45.77;22.67;;;;;;;10.27;59.89;98832.75;123936;1106;104179;-67
2021/03/04 09:10:07;;;;;;;43.40;23.13;;;;;;;10.48;59.51;98832.11;123962;1106;104271;-68
2021/03/04 09:12:44;;;;;;;37.70;20.17;;;;;;;10.61;60.25;98824.03;124213;1105;104682;-66
2021/03/04 09:15:17;;;;;;;42.47;22.13;;;;;;;10.66;60.15;98827.19;124206;1105;104259;-67
2021/03/04 09:17:49;;;;;;;40.83;22.27;;;;;;;10.72;59.73;98818.74;124252;1105;104191;-69
2021/03/04 09:20:19;;;;;;;38.17;19.47;;;;;;;10.72;59.45;98816.08;124247;1105;104271;-71
2021/03/04 09:22:48;;;;;;;40.13;20.57;;;;;;;10.81;59.20;98814.51;124223;1105;104185;-67
2021/03/04 09:25:20;;;;;;;40.27;19.97;;;;;;;10.85;59.14;98813.30;124238;1105;104165;-67
2021/03/04 09:27:50;;;;;;;38.77;21.03;;;;;;;11.00;59.90;98806.80;124213;1105;104239;-67
2021/03/04 09:30:28;;;;;;;35.07;17.40;;;;;;;11.22;59.89;98809.57;123931;1105;104175;-67
2021/03/04 09:32:57;;;;;;;37.07;17.97;;;;;;;11.32;59.08;98792.73;124181;1105;104264;-66
2021/03/04 09:35:27;;;;;;;38.03;18.20;;;;;;;11.36;58.72;98788.02;124284;1105;104239;-67
2021/03/04 09:38:05;;;;;;;38.53;19.13;;;;;;;11.40;59.73;98797.45;124283;1105;104265;-67
2021/03/04 09:40:33;;;;;;;47.53;25.57;;;;;;;11.38;59.69;98794.07;123991;1105;104190;-68
2021/03/04 09:43:00;;;;;;;56.87;31.00;;;;;;;11.50;59.50;98791.36;124279;1105;104734;-68
2021/03/04 09:45:27;;;;;;;46.33;25.30;;;;;;;11.50;59.50;98778.91;123927;1105;104242;-67
2021/03/04 09:47:55;;;;;;;51.80;29.73;;;;;;;11.44;58.59;98780.23;124230;1105;104226;-66
2021/03/04 09:50:28;;;;;;;49.57;27.50;;;;;;;11.42;59.21;98781.34;124159;1105;104415;-67
2021/03/04 09:53:06;;;;;;;49.30;27.00;;;;;;;11.40;58.27;98773.49;124198;1105;104233;-68
2021/03/04 09:55:38;;;;;;;52.45;30.05;;;;;;;11.43;58.74;98781.20;124131;1105;104200;-67
2021/03/04 09:58:23;;;;;;;52.57;30.73;;;;;;;11.53;58.17;98776.00;124152;1105;104190;-68
2021/03/04 10:00:58;;;;;;;60.40;31.10;;;;;;;11.55;58.06;98767.87;124130;1105;104248;-67
2021/03/04 10:03:37;;;;;;;48.67;28.50;;;;;;;11.57;58.16;98765.92;124208;1105;104163;-68
2021/03/04 10:06:06;;;;;;;60.37;32.23;;;;;;;11.59;58.67;98779.97;124051;1105;104153;-72
2021/03/04 10:08:40;;;;;;;46.53;27.37;;;;;;;11.60;57.71;98760.35;124206;1105;104165;-72
2021/03/04 10:11:08;;;;;;;49.07;28.87;;;;;;;11.59;58.32;98777.30;123975;1105;104271;-67
2021/03/04 10:13:35;;;;;;;56.20;29.37;;;;;;;11.52;57.68;98757.46;124229;1105;104264;-68
2021/03/04 10:16:10;;;;;;;51.75;28.80;;;;;;;11.41;57.39;98761.01;124183;1105;104432;-66
2021/03/04 10:18:43;;;;;;;49.53;29.57;;;;;;;11.34;57.64;98766.00;124147;1105;104252;-68
2021/03/04 10:21:10;;;;;;;53.37;28.80;;;;;;;11.32;58.04;98765.27;124103;1105;104695;-67
2021/03/04 10:23:37;;;;;;;50.43;25.63;;;;;;;11.25;57.87;98772.89;124182;1105;104184;-67
2021/03/04 10:26:04;;;;;;;53.90;27.27;;;;;;;11.04;57.68;98762.14;123899;1105;104178;-67
2021/03/04 10:28:32;;;;;;;51.58;29.12;;;;;;;10.86;57.20;98759.98;124141;1105;104188;-67
2021/03/04 10:30:59;;;;;;;47.50;26.70;;;;;;;10.74;57.66;98768.92;123883;1105;104277;-66
2021/03/04 10:33:26;;;;;;;49.27;26.80;;;;;;;10.65;56.90;98775.82;124143;1105;104156;-69
2021/03/04 10:35:53;;;;;;;54.38;29.23;;;;;;;10.60;57.17;98764.69;124148;1105;104256;-66
2021/03/04 10:38:20;;;;;;;52.90;29.83;;;;;;;10.57;57.54;98764.92;124141;1105;104265;-65
2021/03/04 10:40:47;;;;;;;46.37;25.13;;;;;;;10.60;57.27;98762.03;124181;1106;104246;-66
2021/03/04 10:43:16;;;;;;;50.23;29.47;;;;;;;10.60;56.75;98753.22;124142;1105;104249;-67
2021/03/04 10:45:43;;;;;;;47.67;25.45;;;;;;;10.56;57.31;98761.43;124227;1105;104660;-66
2021/03/04 10:48:12;;;;;;;56.55;28.10;;;;;;;10.57;57.04;98756.95;124153;1105;104271;-68
2021/03/04 10:50:40;;;;;;;52.60;27.17;;;;;;;10.50;57.10;98763.70;124005;1105;104235;-68
2021/03/04 10:53:07;;;;;;;48.07;25.80;;;;;;;10.47;56.73;98753.30;124240;1105;104376;-67
2021/03/04 10:55:40;;;;;;;54.50;29.50;;;;;;;10.46;56.46;98751.61;124126;1105;104155;-66
2021/03/04 10:58:08;;;;;;;48.40;28.37;;;;;;;10.44;56.70;98754.39;123855;1105;104236;-67
2021/03/04 11:00:36;;;;;;;52.15;27.65;;;;;;;10.49;56.70;98754.89;124124;1105;104638;-69
2021/03/04 11:03:03;;;;;;;48.77;26.77;;;;;;;10.49;57.05;98746.05;124162;1105;104153;-66
2021/03/04 11:05:31;;;;;;;48.65;27.25;;;;;;;10.47;56.55;98748.84;124681;1105;104149;-66
2021/03/04 11:07:58;;;;;;;48.33;26.85;;;;;;;10.43;56.90;98740.23;124129;1105;104261;-66
2021/03/04 11:10:25;;;;;;;48.87;27.77;;;;;;;10.42;56.52;98743.86;124154;1105;104162;-67
2021/03/04 11:12:52;;;;;;;54.83;30.65;;;;;;;10.44;56.61;98743.77;124158;1105;104156;-67
2021/03/04 11:15:19;;;;;;;52.73;31.30;;;;;;;10.48;56.54;98741.70;124198;1105;104181;-67
2021/03/04 11:17:50;;;;;;;46.93;26.17;;;;;;;10.54;56.53;98735.91;124195;1105;104165;-67
2021/03/04 11:20:19;;;;;;;55.07;31.30;;;;;;;10.56;56.15;98733.98;124088;1105;104181;-67
2021/03/04 11:22:47;;;;;;;57.30;31.73;;;;;;;10.58;56.27;98732.05;124212;1105;104149;-69